Weather History for KCMD - September, 2013

Change the Weather History Date:

Wednesday, September 18, 2013

  Actual Average Record
Temperature  
Mean Temperature 72 °F -  
Max Temperature 81 °F - - ()
Min Temperature 63 °F - - ()
Cooling Degree Days 7    
Growing Degree Days 22 (Base 50)    
Moisture  
Dew Point 64 °F    
Average Humidity 77    
Maximum Humidity 90    
Minimum Humidity 59    
Precipitation  
Precipitation 0.00 in - - ()
Sea Level Pressure  
Sea Level Pressure 30.18 in    
Wind  
Wind Speed 5 mph (SE)    
Max Wind Speed 9 mph    
Max Gust Speed 17 mph    
Visibility 10 miles    
Events      
T = Trace of Precipitation, MM = Missing Value Source: NWS Daily Summary

Daily Weather History Graph

Daily Weather History Graph

Search for Another Location

Airport or City:

Trip Planner

Search our weather history database for the weather conditions in past years. The results will help you decide how hot, cold, wet, or windy it might be!

Date:

Astronomy

Sep. 18, 2013 Rise Set
Actual Time 6:32 AM CDT 6:49 PM CDT
Civil Twilight 6:07 AM CDT 7:14 PM CDT
Nautical Twilight 5:38 AM CDT 7:43 PM CDT
Astronomical Twilight 5:08 AM CDT 8:13 PM CDT
Moon 6:13 PM CDT (9/18) 5:35 AM CDT (9/18)
Length of Visible Light 13h 06m
Length of Day
12h 16m
Waxing Gibbous, 99% of the Moon is Illuminated
Sep 18
Waxing Gibbous
Sep 19
Full
Sep 26
Last Quarter
Oct 4
New
Oct 11
First Quarter

Hourly Weather History & Observations

Time (CDT) Temp. Heat Index Dew Point Humidity Pressure Visibility Wind Dir Wind Speed Gust Speed Precip Events Conditions
12:15 AM 68.9 °F - 64.8 °F 87% 30.18 in 10.0 mi ESE 4.6 mph - N/A   Clear
12:35 AM 68.5 °F - 64.6 °F 87% 30.18 in 10.0 mi SE 5.8 mph - N/A   Clear
12:55 AM 68.0 °F - 64.4 °F 88% 30.18 in 7.0 mi SE 5.8 mph - N/A   Clear
1:15 AM 67.6 °F - 64.4 °F 89% 30.18 in 7.0 mi SE 5.8 mph - N/A   Clear
1:35 AM 67.3 °F - 64.0 °F 89% 30.18 in 7.0 mi ESE 5.8 mph - N/A   Clear
1:55 AM 67.1 °F - 63.7 °F 89% 30.18 in 7.0 mi SE 5.8 mph - N/A   Clear
2:15 AM 66.6 °F - 63.5 °F 90% 30.18 in 7.0 mi SE 4.6 mph - N/A   Clear
2:35 AM 66.2 °F - 63.1 °F 90% 30.17 in 10.0 mi ESE 5.8 mph - N/A   Clear
2:55 AM 66.0 °F - 62.8 °F 89% 30.17 in 10.0 mi ESE 6.9 mph - N/A   Clear
3:15 AM 65.5 °F - 62.4 °F 90% 30.17 in 10.0 mi ESE 5.8 mph - N/A   Clear
3:35 AM 65.3 °F - 62.1 °F 89% 30.17 in 10.0 mi ESE 6.9 mph - N/A   Clear
3:55 AM 64.9 °F - 61.7 °F 89% 30.17 in 10.0 mi ESE 5.8 mph - N/A   Clear
4:15 AM 64.8 °F - 61.5 °F 89% 30.17 in 10.0 mi SE 6.9 mph - N/A   Clear
4:35 AM 64.6 °F - 61.2 °F 89% 30.17 in 10.0 mi ESE 5.8 mph - N/A   Clear
4:55 AM 64.4 °F - 61.0 °F 89% 30.18 in 10.0 mi ESE 5.8 mph - N/A   Clear
5:15 AM 64.4 °F - 60.8 °F 88% 30.18 in 10.0 mi ESE 5.8 mph - N/A   Clear
5:35 AM 64.4 °F - 60.8 °F 88% 30.19 in 10.0 mi SE 4.6 mph - N/A   Clear
5:55 AM 64.2 °F - 60.4 °F 87% 30.19 in 10.0 mi SE 4.6 mph - N/A   Clear
6:15 AM 63.9 °F - 60.3 °F 88% 30.19 in 10.0 mi ESE 5.8 mph - N/A   Clear
6:35 AM 63.9 °F - 60.1 °F 87% 30.19 in 10.0 mi ESE 5.8 mph - N/A   Clear
6:55 AM 63.9 °F - 60.1 °F 87% 30.20 in 10.0 mi ESE 4.6 mph - N/A   Scattered Clouds
7:15 AM 63.9 °F - 60.3 °F 88% 30.20 in 10.0 mi ESE 3.5 mph - N/A   Scattered Clouds
7:35 AM 64.4 °F - 60.3 °F 86% 30.20 in 10.0 mi ESE 5.8 mph - N/A   Scattered Clouds
7:55 AM 65.1 °F - 60.4 °F 85% 30.21 in 10.0 mi SE 4.6 mph - N/A   Scattered Clouds
8:15 AM 65.7 °F - 60.6 °F 84% 30.22 in 10.0 mi ESE 5.8 mph - N/A   Scattered Clouds
8:35 AM 65.8 °F - 60.8 °F 84% 30.22 in 10.0 mi ESE 5.8 mph - N/A   Scattered Clouds
8:55 AM 66.6 °F - 61.0 °F 82% 30.22 in 10.0 mi ESE 6.9 mph - N/A   Mostly Cloudy
9:15 AM 69.1 °F - 61.3 °F 76% 30.22 in 10.0 mi East 8.1 mph - N/A   Overcast
9:35 AM 70.0 °F - 61.3 °F 74% 30.23 in 10.0 mi ESE 9.2 mph - N/A   Overcast
9:55 AM 70.7 °F - 61.5 °F 73% 30.23 in 10.0 mi SSE 8.1 mph - N/A   Overcast
10:15 AM 71.6 °F - 61.9 °F 71% 30.23 in 10.0 mi SE 5.8 mph - N/A   Overcast
10:35 AM 72.1 °F - 62.4 °F 71% 30.23 in 10.0 mi SSE 5.8 mph - N/A   Scattered Clouds
10:55 AM 74.3 °F - 63.0 °F 68% 30.22 in 10.0 mi SSE 8.1 mph - N/A   Scattered Clouds
11:15 AM 75.6 °F - 63.5 °F 66% 30.22 in 10.0 mi SE 6.9 mph - N/A   Clear
11:35 AM 77.0 °F - 63.7 °F 63% 30.21 in 10.0 mi SSE 5.8 mph 9.2 mph N/A   Clear
11:55 AM 77.0 °F - 63.5 °F 63% 30.21 in 10.0 mi SSE 9.2 mph 17.3 mph N/A   Mostly Cloudy
12:15 PM 77.7 °F - 63.7 °F 62% 30.21 in 10.0 mi South 6.9 mph - N/A   Mostly Cloudy
12:35 PM 79.5 °F - 64.4 °F 60% 30.20 in 10.0 mi SSE 6.9 mph - N/A   Mostly Cloudy
12:55 PM 79.7 °F - 64.6 °F 60% 30.20 in 10.0 mi ESE 8.1 mph - N/A   Mostly Cloudy
1:15 PM 78.8 °F - 64.6 °F 62% 30.19 in 10.0 mi ESE 5.8 mph - N/A   Overcast
1:35 PM 78.6 °F - 64.9 °F 63% 30.19 in 10.0 mi Calm Calm - N/A   Mostly Cloudy
1:55 PM 79.2 °F - 64.9 °F 62% 30.18 in 10.0 mi ESE 5.8 mph - N/A   Mostly Cloudy
2:15 PM 78.6 °F - 65.1 °F 63% 30.17 in 10.0 mi SE 5.8 mph - N/A   Overcast
2:35 PM 79.2 °F - 65.3 °F 62% 30.17 in 10.0 mi ESE 6.9 mph - N/A   Overcast
2:55 PM 79.2 °F - 65.3 °F 62% 30.16 in 10.0 mi SSE 4.6 mph - N/A   Overcast
3:15 PM 79.5 °F - 65.7 °F 62% 30.15 in 10.0 mi East 5.8 mph - N/A   Overcast
3:35 PM 79.0 °F - 65.7 °F 64% 30.15 in 10.0 mi SSE 4.6 mph - N/A   Overcast
3:55 PM 80.1 °F 82.0 °F 65.5 °F 61% 30.14 in 10.0 mi SSE 5.8 mph - N/A   Mostly Cloudy
4:15 PM 81.0 °F 82.9 °F 65.5 °F 59% 30.14 in 10.0 mi South 3.5 mph - N/A   Scattered Clouds
4:35 PM 80.1 °F 82.0 °F 65.3 °F 61% 30.14 in 10.0 mi South 4.6 mph - N/A   Scattered Clouds
4:55 PM 80.4 °F 82.4 °F 65.7 °F 61% 30.13 in 10.0 mi SE 4.6 mph - N/A   Scattered Clouds
5:15 PM 80.4 °F 82.4 °F 65.7 °F 61% 30.13 in 10.0 mi SE 4.6 mph - N/A   Scattered Clouds
5:35 PM 80.1 °F 82.0 °F 65.7 °F 61% 30.13 in 10.0 mi SE 3.5 mph - N/A   Scattered Clouds
5:55 PM 79.2 °F - 66.0 °F 64% 30.13 in 10.0 mi Calm Calm - N/A   Scattered Clouds
6:15 PM 77.9 °F - 66.2 °F 67% 30.13 in 10.0 mi Calm Calm - N/A   Clear
6:35 PM 77.0 °F - 66.4 °F 70% 30.13 in 10.0 mi ESE 3.5 mph - N/A   Clear
6:55 PM 75.9 °F - 66.0 °F 71% 30.13 in 10.0 mi Calm Calm - N/A   Clear
7:15 PM 74.8 °F - 66.0 °F 74% 30.13 in 10.0 mi Calm Calm - N/A   Clear
7:35 PM 73.8 °F - 66.2 °F 77% 30.14 in 10.0 mi Calm Calm - N/A   Clear
7:55 PM 73.4 °F - 66.0 °F 78% 30.15 in 10.0 mi Calm Calm - N/A   Clear
8:15 PM 73.0 °F - 65.7 °F 78% 30.15 in 10.0 mi ESE 3.5 mph - N/A   Clear
8:35 PM 72.7 °F - 65.7 °F 79% 30.15 in 10.0 mi ESE 3.5 mph - N/A   Clear
8:55 PM 72.3 °F - 65.5 °F 79% 30.16 in 7.0 mi SE 3.5 mph - N/A   Clear
9:15 PM 72.0 °F - 65.3 °F 79% 30.16 in 7.0 mi SE 3.5 mph - N/A   Clear
9:35 PM 71.8 °F - 65.1 °F 79% 30.16 in 7.0 mi SE 3.5 mph - N/A   Clear
9:55 PM 71.1 °F - 65.3 °F 82% 30.16 in 7.0 mi ESE 3.5 mph - N/A   Clear
10:15 PM 70.7 °F - 65.3 °F 83% 30.16 in 7.0 mi ESE 3.5 mph - N/A   Clear
10:35 PM 70.3 °F - 64.9 °F 83% 30.16 in 7.0 mi Calm Calm - N/A   Clear
10:55 PM 69.8 °F - 64.8 °F 84% 30.16 in 7.0 mi SE 4.6 mph - N/A   Clear
11:15 PM 69.3 °F - 64.8 °F 86% 30.16 in 10.0 mi ESE 4.6 mph - N/A   Clear
11:35 PM 69.3 °F - 64.9 °F 86% 30.16 in 7.0 mi SE 4.6 mph - N/A   Clear
11:55 PM 69.1 °F - 64.9 °F 87% 30.16 in 10.0 mi SE 4.6 mph - N/A   Clear